Time;durP1;ratioP1;P1;durP2;ratioP2;P2;SDS_P1;SDS_P2;PMS_P1;PMS_P2;Temp;Humidity;BMP_temperature;BMP_pressure;BME280_temperature;BME280_humidity;BME280_pressure;Samples;Min_cycle;Max_cycle;Signal;HPM_P1;HPM_P2
2023/05/26 00:01:47;;;;;;;26.25;5.07;;;;;;;8.80;100.00;102785.88;5053620;28;20400;-52
2023/05/26 00:04:16;;;;;;;26.35;5.13;;;;;;;8.78;100.00;102785.06;5053176;28;20415;-52
2023/05/26 00:06:46;;;;;;;28.38;5.55;;;;;;;8.69;100.00;102787.09;5052189;28;20052;-59
2023/05/26 00:09:14;;;;;;;25.00;4.95;;;;;;;8.74;100.00;102793.06;5051475;28;20139;-60
2023/05/26 00:11:42;;;;;;;21.38;4.07;;;;;;;8.71;100.00;102787.88;5053185;28;20048;-60
2023/05/26 00:14:14;;;;;;;22.05;3.97;;;;;;;8.66;100.00;102795.00;5033388;28;20057;-59
2023/05/26 00:16:44;;;;;;;22.08;3.90;;;;;;;8.56;100.00;102789.16;5051600;28;20045;-59
2023/05/26 00:19:15;;;;;;;20.33;4.60;;;;;;;8.69;100.00;102794.97;5051554;28;20041;-60
2023/05/26 00:21:43;;;;;;;22.00;4.72;;;;;;;8.52;100.00;102798.00;5051466;28;20037;-61
2023/05/26 00:24:12;;;;;;;26.40;4.82;;;;;;;8.42;100.00;102797.34;5050612;28;20047;-61
2023/05/26 00:26:40;;;;;;;21.08;4.38;;;;;;;8.56;100.00;102791.78;5051948;28;20106;-61
2023/05/26 00:29:08;;;;;;;22.58;4.43;;;;;;;8.53;100.00;102792.72;5050713;28;20060;-62
2023/05/26 00:31:56;;;;;;;19.15;3.72;;;;;;;8.43;100.00;102796.44;5051620;28;20107;-60
2023/05/26 00:34:24;;;;;;;22.92;3.67;;;;;;;8.37;100.00;102799.22;5052880;28;20470;-58
2023/05/26 00:36:53;;;;;;;19.75;3.97;;;;;;;8.36;100.00;102800.13;5051021;28;20060;-58
2023/05/26 00:39:23;;;;;;;25.88;4.75;;;;;;;8.31;100.00;102799.38;5050979;28;20052;-61
2023/05/26 00:41:52;;;;;;;23.05;4.97;;;;;;;8.28;100.00;102808.19;5049066;28;20065;-60
2023/05/26 00:44:21;;;;;;;24.83;4.25;;;;;;;8.32;100.00;102803.69;5050645;28;20036;-61
2023/05/26 00:46:50;;;;;;;18.88;4.55;;;;;;;8.31;100.00;102809.88;5050633;28;20049;-60
2023/05/26 00:49:19;;;;;;;23.95;4.75;;;;;;;8.18;100.00;102806.66;5050228;28;20116;-59
2023/05/26 00:51:48;;;;;;;25.77;4.88;;;;;;;8.13;100.00;102802.38;5050652;28;20128;-59
2023/05/26 00:54:16;;;;;;;23.08;3.85;;;;;;;8.12;100.00;102799.81;5050196;28;20523;-60
2023/05/26 00:56:44;;;;;;;20.83;4.38;;;;;;;8.15;100.00;102802.34;5049384;28;20044;-60
2023/05/26 00:59:14;;;;;;;19.88;3.55;;;;;;;8.18;100.00;102809.28;5050778;28;20069;-61
2023/05/26 01:01:43;;;;;;;22.70;5.15;;;;;;;8.12;100.00;102807.66;5050806;28;20095;-60
2023/05/26 01:04:11;;;;;;;17.80;4.00;;;;;;;8.20;100.00;102807.50;5050021;28;20071;-60
2023/05/26 01:06:41;;;;;;;25.48;4.18;;;;;;;8.12;100.00;102800.66;5050305;28;20053;-60
2023/05/26 01:09:12;;;;;;;20.15;4.47;;;;;;;8.12;100.00;102807.66;5049678;28;20044;-59
2023/05/26 01:11:46;;;;;;;29.77;4.32;;;;;;;8.14;100.00;102805.88;5048917;28;20045;-61
2023/05/26 01:14:21;;;;;;;24.80;4.32;;;;;;;8.04;100.00;102807.84;5049552;28;20445;-59
2023/05/26 01:16:56;;;;;;;23.85;4.50;;;;;;;8.05;100.00;102806.09;5033243;28;20061;-60
2023/05/26 01:19:55;;;;;;;25.27;3.95;;;;;;;8.04;100.00;102809.59;5050490;28;20049;-60
2023/05/26 01:22:50;;;;;;;24.50;3.72;;;;;;;8.04;100.00;102807.84;5048335;28;20496;-60
2023/05/26 01:25:31;;;;;;;25.52;4.88;;;;;;;8.06;100.00;102803.44;5049775;28;20049;-61
2023/05/26 01:28:12;;;;;;;25.63;5.05;;;;;;;8.08;100.00;102806.03;5049346;28;20049;-60
2023/05/26 01:30:40;;;;;;;24.23;4.47;;;;;;;8.01;100.00;102807.06;5050106;28;20041;-61
2023/05/26 01:33:09;;;;;;;29.08;4.35;;;;;;;7.99;100.00;102814.09;5032243;28;20049;-59
2023/05/26 01:35:37;;;;;;;25.38;4.45;;;;;;;8.03;100.00;102810.50;5032797;28;20048;-60
2023/05/26 01:38:07;;;;;;;28.55;4.90;;;;;;;7.85;100.00;102806.53;5050180;28;20500;-60
2023/05/26 01:40:38;;;;;;;28.10;4.57;;;;;;;7.88;100.00;102814.31;5049517;28;20500;-59
2023/05/26 01:43:17;;;;;;;19.25;3.95;;;;;;;7.89;100.00;102816.91;5052803;28;20110;-61
2023/05/26 01:45:53;;;;;;;21.98;4.18;;;;;;;7.87;100.00;102817.88;5053529;28;20433;-52
2023/05/26 01:48:23;;;;;;;26.45;4.32;;;;;;;7.82;100.00;102811.84;5052899;28;20080;-51
2023/05/26 01:50:57;;;;;;;24.17;4.20;;;;;;;7.79;100.00;102816.25;5052754;28;20041;-52
2023/05/26 01:53:30;;;;;;;20.35;3.65;;;;;;;7.83;100.00;102818.81;5052730;28;20045;-52
2023/05/26 01:56:00;;;;;;;25.15;4.20;;;;;;;7.85;100.00;102823.13;5033297;28;20111;-53
2023/05/26 01:58:33;;;;;;;25.15;4.18;;;;;;;7.72;100.00;102824.31;5052587;28;20567;-52
2023/05/26 02:01:03;;;;;;;21.83;4.38;;;;;;;7.75;100.00;102832.09;5052684;28;20132;-53
2023/05/26 02:03:31;;;;;;;24.25;4.35;;;;;;;7.73;100.00;102831.25;5052253;28;20049;-52
2023/05/26 02:05:59;;;;;;;26.83;5.28;;;;;;;7.73;100.00;102831.25;5052412;28;20049;-52
2023/05/26 02:08:27;;;;;;;21.42;3.97;;;;;;;7.69;100.00;102830.47;5052297;28;20206;-50
2023/05/26 02:10:55;;;;;;;24.95;4.80;;;;;;;7.64;100.00;102845.41;5050456;28;20754;-51
2023/05/26 02:13:24;;;;;;;23.77;4.93;;;;;;;7.61;100.00;102841.09;5034633;28;20087;-52
2023/05/26 02:15:54;;;;;;;20.15;4.85;;;;;;;7.60;100.00;102846.38;5052724;28;20041;-53
2023/05/26 02:18:24;;;;;;;23.95;4.40;;;;;;;7.54;100.00;102844.75;5034328;28;20084;-53
2023/05/26 02:20:53;;;;;;;26.98;5.20;;;;;;;7.55;100.00;102846.47;5052441;28;20092;-52
2023/05/26 02:23:21;;;;;;;27.05;5.38;;;;;;;7.55;100.00;102845.59;5034186;28;20045;-51
2023/05/26 02:25:50;;;;;;;20.17;4.47;;;;;;;7.50;100.00;102843.06;5050813;28;20049;-53
2023/05/26 02:28:18;;;;;;;20.75;4.18;;;;;;;7.48;100.00;102842.22;5052004;28;20400;-53
2023/05/26 02:30:46;;;;;;;33.95;5.15;;;;;;;7.49;100.00;102854.44;5051415;28;20723;-49
2023/05/26 02:33:16;;;;;;;22.08;4.00;;;;;;;7.41;100.00;102841.50;5051890;28;20123;-52
2023/05/26 02:35:44;;;;;;;26.17;4.35;;;;;;;7.45;100.00;102844.91;5034002;28;20145;-54
2023/05/26 02:38:12;;;;;;;26.67;4.72;;;;;;;7.40;100.00;102844.16;5050994;28;20044;-51
2023/05/26 02:40:40;;;;;;;20.88;4.40;;;;;;;7.33;100.00;102848.63;5050594;28;20049;-54
2023/05/26 02:43:09;;;;;;;17.20;4.40;;;;;;;7.33;100.00;102840.78;5050922;28;20049;-52
2023/05/26 02:45:37;;;;;;;24.00;4.65;;;;;;;7.34;100.00;102834.66;5034198;28;20052;-51
2023/05/26 02:48:06;;;;;;;25.40;4.32;;;;;;;7.38;100.00;102848.56;5052065;28;20098;-50
2023/05/26 02:50:35;;;;;;;23.77;4.32;;;;;;;7.40;100.00;102844.16;5052164;28;20049;-52
2023/05/26 02:53:04;;;;;;;21.35;4.72;;;;;;;7.37;100.00;102842.44;5032591;28;20048;-53
2023/05/26 02:55:32;;;;;;;25.77;5.10;;;;;;;7.34;100.00;102839.91;5051066;28;20052;-53
2023/05/26 02:58:00;;;;;;;25.77;5.05;;;;;;;7.25;100.00;102843.56;5050171;28;20053;-52
2023/05/26 03:00:29;;;;;;;21.17;4.53;;;;;;;7.28;100.00;102837.41;5051397;28;20045;-52
2023/05/26 03:02:57;;;;;;;18.25;4.75;;;;;;;7.31;100.00;102846.94;5051683;28;20049;-51
2023/05/26 03:05:25;;;;;;;22.23;4.88;;;;;;;7.32;100.00;102840.81;5051142;28;20267;-52
2023/05/26 03:07:55;;;;;;;23.08;4.25;;;;;;;7.24;100.00;102839.22;5051423;28;20127;-54
2023/05/26 03:10:23;;;;;;;19.70;4.40;;;;;;;7.24;100.00;102841.84;5051227;28;20131;-49
2023/05/26 03:12:51;;;;;;;24.20;4.75;;;;;;;7.18;100.00;102844.56;5049966;28;20140;-50
2023/05/26 03:15:19;;;;;;;19.00;3.90;;;;;;;7.27;100.00;102843.53;5051515;28;20052;-49
2023/05/26 03:17:47;;;;;;;19.88;4.30;;;;;;;7.24;100.00;102846.19;5051595;28;20047;-52
2023/05/26 03:20:18;;;;;;;23.20;4.55;;;;;;;7.21;100.00;102848.88;5050904;28;20045;-54
2023/05/26 03:22:46;;;;;;;30.33;5.28;;;;;;;7.21;100.00;102852.38;5050917;28;20041;-51
2023/05/26 03:25:21;;;;;;;22.17;4.13;;;;;;;7.17;100.00;102848.09;5051178;28;20672;-54
2023/05/26 03:27:49;;;;;;;27.67;4.93;;;;;;;7.15;100.00;102852.47;5049508;28;20579;-51
2023/05/26 03:30:17;;;;;;;25.92;5.18;;;;;;;7.10;100.00;102841.22;5050722;28;20132;-53
2023/05/26 03:32:46;;;;;;;20.35;4.40;;;;;;;7.17;100.00;102850.69;5051271;28;20076;-53
2023/05/26 03:35:14;;;;;;;17.83;4.15;;;;;;;7.10;100.00;102846.44;5050643;28;20045;-51
2023/05/26 03:37:42;;;;;;;20.20;3.95;;;;;;;7.10;100.00;102854.31;5050482;28;20049;-53
2023/05/26 03:40:11;;;;;;;26.02;5.28;;;;;;;7.07;100.00;102849.13;5050397;28;20111;-52
2023/05/26 03:42:40;;;;;;;22.08;4.43;;;;;;;7.10;100.00;102849.06;5049421;28;20152;-51
2023/05/26 03:45:09;;;;;;;27.25;5.57;;;;;;;7.15;100.00;102846.38;5050740;28;20119;-52
2023/05/26 03:47:37;;;;;;;19.42;4.35;;;;;;;7.13;100.00;102851.66;5050999;28;20080;-47
2023/05/26 03:50:06;;;;;;;28.50;4.68;;;;;;;7.10;100.00;102854.31;5050706;28;20037;-52
2023/05/26 03:52:38;;;;;;;23.85;4.13;;;;;;;7.09;100.00;102848.22;5050633;28;20071;-54
2023/05/26 03:55:09;;;;;;;22.52;4.53;;;;;;;7.07;100.00;102854.38;5050542;28;20045;-53
2023/05/26 03:57:38;;;;;;;26.92;4.80;;;;;;;7.07;100.00;102856.97;5048433;28;20044;-53
2023/05/26 04:00:10;;;;;;;26.90;5.18;;;;;;;7.13;100.00;102861.25;5050463;28;20045;-52
2023/05/26 04:02:38;;;;;;;24.17;6.10;;;;;;;7.11;100.00;102856.03;5050505;28;20040;-50
2023/05/26 04:05:07;;;;;;;26.65;4.65;;;;;;;7.09;100.00;102860.44;5049848;28;20053;-53
2023/05/26 04:07:36;;;;;;;17.33;4.32;;;;;;;7.09;100.00;102868.31;5052847;28;20049;-53
2023/05/26 04:10:05;;;;;;;26.50;4.60;;;;;;;7.07;100.00;102860.44;5049746;28;20126;-52
2023/05/26 04:12:33;;;;;;;23.42;4.82;;;;;;;7.12;100.00;102873.47;5048207;28;20381;-55
2023/05/26 04:15:01;;;;;;;27.10;4.57;;;;;;;7.13;100.00;102869.97;5050407;28;20065;-52
2023/05/26 04:17:32;;;;;;;23.45;4.75;;;;;;;7.16;100.00;102871.63;5049472;28;20076;-51
2023/05/26 04:20:00;;;;;;;19.33;4.13;;;;;;;7.13;100.00;102872.59;5052698;28;20049;-48
2023/05/26 04:22:32;;;;;;;20.25;4.65;;;;;;;7.18;100.00;102870.72;5053167;28;20095;-50
2023/05/26 04:25:01;;;;;;;21.55;4.50;;;;;;;7.19;100.00;102871.59;5052911;28;20400;-49
2023/05/26 04:27:29;;;;;;;26.05;5.45;;;;;;;7.26;100.00;102876.69;5053153;28;20056;-50
2023/05/26 04:29:58;;;;;;;23.60;3.83;;;;;;;7.33;100.00;102876.56;5034881;28;20049;-49
2023/05/26 04:32:26;;;;;;;25.13;3.70;;;;;;;7.32;100.00;102877.47;5050724;28;20476;-50
2023/05/26 04:34:55;;;;;;;21.98;4.40;;;;;;;7.38;100.00;102878.22;5050331;28;20132;-51
2023/05/26 04:37:24;;;;;;;23.48;4.82;;;;;;;7.44;100.00;102880.72;5050874;28;20049;-54
2023/05/26 04:39:52;;;;;;;20.65;4.78;;;;;;;7.43;100.00;102885.97;5053557;28;20072;-52
2023/05/26 04:42:20;;;;;;;23.30;4.35;;;;;;;7.52;100.00;102887.56;5053408;28;20047;-53
2023/05/26 04:44:48;;;;;;;22.42;4.88;;;;;;;7.47;100.00;102887.63;5050350;28;20049;-55
2023/05/26 04:47:16;;;;;;;22.00;4.03;;;;;;;7.41;100.00;102891.22;5049362;28;20071;-53
2023/05/26 04:49:45;;;;;;;20.08;4.35;;;;;;;7.49;100.00;102891.09;5049829;28;20056;-51
2023/05/26 04:52:17;;;;;;;29.90;4.72;;;;;;;7.53;100.00;102891.91;5050076;28;20059;-51
2023/05/26 04:54:45;;;;;;;23.23;4.40;;;;;;;7.55;100.00;102893.59;5051178;28;20043;-60
2023/05/26 04:57:14;;;;;;;25.40;4.60;;;;;;;7.64;100.00;102900.41;5048204;28;20106;-59
2023/05/26 04:59:43;;;;;;;20.83;4.20;;;;;;;7.68;100.00;102890.75;5050562;28;20049;-58
2023/05/26 05:02:11;;;;;;;23.02;5.10;;;;;;;7.70;100.00;102896.78;5049531;28;20412;-52
2023/05/26 05:04:42;;;;;;;19.80;4.75;;;;;;;7.78;100.00;102889.63;5050417;28;20049;-51
2023/05/26 05:07:10;;;;;;;26.23;4.78;;;;;;;7.80;100.00;102895.72;5050206;28;20412;-59
2023/05/26 05:09:39;;;;;;;24.20;5.40;;;;;;;7.95;100.00;102895.38;5050361;28;20396;-59
2023/05/26 05:12:10;;;;;;;22.58;4.15;;;;;;;7.93;100.00;102898.94;5048538;28;20148;-59
2023/05/26 05:14:38;;;;;;;22.92;4.38;;;;;;;7.95;100.00;102899.78;5050211;28;20053;-59
2023/05/26 05:17:06;;;;;;;26.35;5.13;;;;;;;8.07;100.00;102902.13;5050234;28;20091;-60
2023/05/26 05:19:34;;;;;;;29.20;4.47;;;;;;;8.18;100.00;102894.03;5050514;28;20052;-60
2023/05/26 05:22:03;;;;;;;22.35;4.65;;;;;;;8.17;100.00;102902.78;5051441;28;20428;-60
2023/05/26 05:24:31;;;;;;;20.58;4.15;;;;;;;8.17;100.00;102912.44;5049541;28;20041;-58
2023/05/26 05:27:01;;;;;;;23.20;4.45;;;;;;;8.26;100.00;102899.97;5048809;28;20709;-59
2023/05/26 05:29:29;;;;;;;23.58;4.50;;;;;;;8.29;100.00;102914.78;5049368;28;20103;-60
2023/05/26 05:31:57;;;;;;;21.23;4.80;;;;;;;8.38;100.00;102918.94;5051162;28;20056;-61
2023/05/26 05:34:26;;;;;;;24.25;5.20;;;;;;;8.45;100.00;102915.28;5051879;28;20124;-59
2023/05/26 05:36:54;;;;;;;23.10;4.60;;;;;;;8.42;100.00;102920.59;5049761;28;20132;-60
2023/05/26 05:39:22;;;;;;;23.73;4.97;;;;;;;8.48;100.00;102922.22;5049685;28;20059;-60
2023/05/26 05:41:50;;;;;;;25.45;4.75;;;;;;;8.56;100.00;102923.78;5030407;28;20056;-60
2023/05/26 05:44:20;;;;;;;26.95;5.38;;;;;;;8.61;100.00;102924.53;5050732;28;20372;-59
2023/05/26 05:46:48;;;;;;;22.75;4.85;;;;;;;8.77;100.00;102930.28;5034218;28;20045;-60
2023/05/26 05:49:16;;;;;;;18.08;3.75;;;;;;;8.89;100.00;102926.50;5052127;28;20860;-51
2023/05/26 05:51:44;;;;;;;29.00;5.80;;;;;;;8.96;100.00;102933.31;5049068;28;20127;-53
2023/05/26 05:54:13;;;;;;;22.85;4.53;;;;;;;9.10;100.00;102930.31;5048633;28;20045;-49
2023/05/26 05:56:41;;;;;;;23.23;4.72;;;;;;;9.16;100.00;102926.66;5030770;28;20052;-53
2023/05/26 05:59:10;;;;;;;24.40;5.05;;;;;;;9.24;100.00;102936.97;5050002;28;20049;-54
2023/05/26 06:01:40;;;;;;;15.88;3.80;;;;;;;9.38;100.00;102948.00;5048964;28;20057;-53
2023/05/26 06:04:08;;;;;;;29.35;4.47;;;;;;;9.39;100.00;102940.97;5048399;28;20515;-50
2023/05/26 06:06:37;;;;;;;26.17;4.57;;;;;;;9.52;100.00;102933.63;5052021;28;20049;-51
2023/05/26 06:09:05;;;;;;;18.95;4.07;;;;;;;9.63;100.00;102940.28;5051390;28;20056;-54
2023/05/26 06:11:37;;;;;;;30.48;4.57;;;;;;;9.70;100.00;102942.75;5048257;28;20049;-53
2023/05/26 06:14:05;;;;;;;23.58;4.18;;;;;;;9.80;100.00;102947.72;5030912;28;20049;-53
2023/05/26 06:16:33;;;;;;;23.45;4.90;;;;;;;9.87;100.00;102935.28;5049868;28;20049;-60
2023/05/26 06:19:03;;;;;;;27.88;5.47;;;;;;;10.00;100.00;102937.53;5051910;28;20454;-59
2023/05/26 06:21:31;;;;;;;22.27;4.00;;;;;;;10.02;100.00;102941.84;5051809;28;20045;-60
2023/05/26 06:24:02;;;;;;;28.80;5.32;;;;;;;10.13;100.00;102937.13;5033863;28;20045;-60
2023/05/26 06:26:30;;;;;;;27.95;4.93;;;;;;;10.20;100.00;102939.53;5052183;28;20053;-59
2023/05/26 06:28:59;;;;;;;32.05;5.90;;;;;;;10.27;100.00;102949.84;5052813;28;20484;-59
2023/05/26 06:31:28;;;;;;;18.60;4.90;;;;;;;10.39;100.00;102942.50;5053037;28;20053;-52
2023/05/26 06:33:59;;;;;;;27.00;5.22;;;;;;;10.48;100.00;102943.13;5052193;28;20120;-53
2023/05/26 06:36:28;;;;;;;24.50;4.80;;;;;;;10.65;100.00;102939.94;5051603;28;20583;-52
2023/05/26 06:39:00;;;;;;;27.45;5.28;;;;;;;10.72;100.00;102950.28;5052263;28;20514;-52
2023/05/26 06:41:28;;;;;;;22.15;4.57;;;;;;;10.78;100.00;102945.69;5049344;28;20053;-51
2023/05/26 06:43:56;;;;;;;20.70;4.45;;;;;;;10.91;100.00;102955.78;5054566;28;20036;-51
2023/05/26 06:46:24;;;;;;;25.85;4.50;;;;;;;10.90;100.00;102962.81;5051768;28;20056;-53
2023/05/26 06:48:53;;;;;;;20.65;4.15;;;;;;;10.89;100.00;102960.25;5051861;28;20053;-55
2023/05/26 06:51:22;;;;;;;24.65;5.75;;;;;;;10.91;100.00;102959.28;5051598;28;20512;-55
2023/05/26 06:53:52;;;;;;;23.77;4.25;;;;;;;11.00;100.00;102960.72;5053950;28;20049;-60
2023/05/26 06:56:22;;;;;;;19.10;3.90;;;;;;;11.01;100.00;102959.84;5052208;28;20045;-61
2023/05/26 06:58:51;;;;;;;25.25;4.18;;;;;;;11.05;100.00;102953.56;5035870;28;20255;-60
2023/05/26 07:01:19;;;;;;;26.23;4.40;;;;;;;11.07;100.00;102957.00;5053106;28;20044;-60
2023/05/26 07:03:50;;;;;;;21.75;3.65;;;;;;;11.21;100.00;102963.56;5053430;28;20527;-60
2023/05/26 07:06:18;;;;;;;26.65;4.97;;;;;;;11.41;100.00;102965.50;5053436;28;20068;-60
2023/05/26 07:08:46;;;;;;;23.15;4.70;;;;;;;11.53;100.00;102969.50;5053120;28;20462;-60
2023/05/26 07:11:16;;;;;;;21.05;4.55;;;;;;;11.55;100.00;102973.81;5052544;28;20127;-59
2023/05/26 07:13:46;;;;;;;20.63;4.22;;;;;;;11.74;100.00;102966.09;5053533;28;20053;-59
2023/05/26 07:16:14;;;;;;;21.50;4.25;;;;;;;11.82;100.00;102974.56;5052768;28;20045;-60
2023/05/26 07:18:42;;;;;;;21.05;4.93;;;;;;;11.79;100.00;102972.06;5053615;28;20051;-60
2023/05/26 07:21:11;;;;;;;26.30;5.78;;;;;;;11.99;100.00;102966.06;5035526;28;20049;-61
2023/05/26 07:23:39;;;;;;;23.13;4.78;;;;;;;12.21;100.00;102969.69;5054635;28;20480;-60
2023/05/26 07:26:07;;;;;;;23.52;3.95;;;;;;;12.36;100.00;102973.50;5053765;28;20415;-60
2023/05/26 07:28:37;;;;;;;20.95;4.53;;;;;;;12.30;100.00;102974.59;5053197;28;20059;-61
2023/05/26 07:31:05;;;;;;;21.35;4.00;;;;;;;12.46;100.00;102983.66;5051830;28;20443;-61
2023/05/26 07:33:33;;;;;;;19.77;3.97;;;;;;;12.44;100.00;102972.28;5053635;28;20052;-61
2023/05/26 07:36:01;;;;;;;19.60;3.67;;;;;;;12.60;100.00;102966.41;5054539;28;20052;-60
2023/05/26 07:38:30;;;;;;;17.10;3.78;;;;;;;12.48;100.00;102960.69;5052717;28;20045;-61
2023/05/26 07:40:58;;;;;;;21.27;4.28;;;;;;;12.78;100.00;102960.38;5052446;28;20051;-60
2023/05/26 07:43:26;;;;;;;21.38;4.07;;;;;;;13.00;100.00;102960.31;5054328;28;20049;-60
2023/05/26 07:45:56;;;;;;;17.08;3.45;;;;;;;13.11;100.00;102953.75;5052819;28;20052;-55
2023/05/26 07:48:25;;;;;;;17.40;4.38;;;;;;;13.21;100.00;102962.13;5050061;28;20045;-54
2023/05/26 07:50:53;;;;;;;18.30;3.65;;;;;;;13.21;100.00;102964.78;5049765;28;20037;-56
2023/05/26 07:53:21;;;;;;;19.08;3.67;;;;;;;13.35;100.00;102962.41;5033535;28;20428;-54
2023/05/26 07:55:49;;;;;;;22.52;5.15;;;;;;;13.29;100.00;102965.31;5050325;28;20063;-54
2023/05/26 07:58:18;;;;;;;22.55;4.50;;;;;;;13.43;100.00;102960.31;5049665;28;21301;-55
2023/05/26 08:00:46;;;;;;;25.75;5.43;;;;;;;13.58;100.00;102948.22;5035136;28;20508;-53
2023/05/26 08:03:15;;;;;;;24.65;4.60;;;;;;;13.81;100.00;102948.94;5052442;28;20045;-56
2023/05/26 08:05:44;;;;;;;24.05;3.90;;;;;;;13.85;100.00;102953.16;5049981;28;20532;-51
2023/05/26 08:08:12;;;;;;;19.27;4.80;;;;;;;14.02;100.00;102955.91;5048941;28;20060;-53
2023/05/26 08:10:41;;;;;;;18.63;4.20;;;;;;;14.23;100.00;102950.53;5030806;28;20103;-53
2023/05/26 08:13:12;;;;;;;22.10;5.25;;;;;;;14.26;100.00;102953.06;5052159;28;20079;-54
2023/05/26 08:15:40;;;;;;;20.55;4.57;;;;;;;14.39;100.00;102949.81;5050061;28;20050;-53
2023/05/26 08:18:08;;;;;;;19.63;4.50;;;;;;;14.34;100.00;102952.66;5049383;28;20097;-55
2023/05/26 08:20:38;;;;;;;22.65;4.75;;;;;;;14.50;100.00;102948.34;5049715;28;20041;-54
2023/05/26 08:23:06;;;;;;;24.02;4.88;;;;;;;14.52;100.00;102951.78;5049629;28;20045;-53
2023/05/26 08:25:34;;;;;;;17.52;4.50;;;;;;;14.68;100.00;102943.13;5049470;28;20040;-52
2023/05/26 08:28:03;;;;;;;17.15;4.90;;;;;;;14.90;100.00;102944.72;5049244;28;20052;-52
2023/05/26 08:30:31;;;;;;;19.95;4.10;;;;;;;14.86;100.00;102962.53;5050314;28;20048;-52
2023/05/26 08:32:59;;;;;;;18.40;4.60;;;;;;;15.02;100.00;102958.22;5033433;28;20091;-53
2023/05/26 08:35:28;;;;;;;18.27;4.50;;;;;;;15.14;100.00;102953.22;5049710;28;20524;-54
2023/05/26 08:37:58;;;;;;;16.60;4.20;;;;;;;15.11;100.00;102951.56;5051487;28;20527;-52
2023/05/26 08:40:26;;;;;;;18.40;4.50;;;;;;;15.06;100.00;102950.09;5052594;28;20051;-54
2023/05/26 08:42:57;;;;;;;19.60;4.28;;;;;;;15.33;100.00;102961.06;5034886;28;20642;-54
2023/05/26 08:45:28;;;;;;;22.92;5.53;;;;;;;15.45;100.00;102964.88;5052639;28;20068;-54
2023/05/26 08:48:00;;;;;;;18.52;4.50;;;;;;;15.48;100.00;102965.56;5050895;28;20150;-55
2023/05/26 08:50:30;;;;;;;17.83;4.70;;;;;;;15.64;100.00;102962.13;5049229;28;20126;-54
2023/05/26 08:53:01;;;;;;;17.02;4.22;;;;;;;15.66;100.00;102957.56;5049089;28;20091;-53
2023/05/26 08:55:34;;;;;;;20.33;4.45;;;;;;;15.80;100.00;102956.88;5049136;28;20052;-53
2023/05/26 08:58:03;;;;;;;17.58;4.47;;;;;;;16.02;100.00;102954.75;5048428;28;20079;-61
2023/05/26 09:00:34;;;;;;;22.48;4.75;;;;;;;16.17;100.00;102944.22;5052357;28;20076;-60
2023/05/26 09:03:03;;;;;;;13.52;4.15;;;;;;;16.33;100.00;102941.56;5052611;28;20509;-60
2023/05/26 09:05:32;;;;;;;19.73;4.43;;;;;;;16.41;97.40;102951.75;5033786;28;20060;-61
2023/05/26 09:08:01;;;;;;;18.00;4.68;;;;;;;16.35;96.75;102937.88;5051879;28;20082;-61
2023/05/26 09:10:31;;;;;;;18.08;4.35;;;;;;;16.55;97.48;102941.19;5052170;28;20060;-60
2023/05/26 09:13:04;;;;;;;14.75;3.65;;;;;;;16.43;94.92;102944.56;5051795;28;20068;-61
2023/05/26 09:15:33;;;;;;;21.08;5.18;;;;;;;16.56;95.10;102937.59;5052213;28;20049;-64
2023/05/26 09:18:06;;;;;;;18.70;4.45;;;;;;;16.90;97.03;102925.88;5052009;28;20121;-60
2023/05/26 09:20:35;;;;;;;21.55;5.22;;;;;;;17.11;95.88;102938.00;5052008;28;20484;-60
2023/05/26 09:23:05;;;;;;;13.50;3.92;;;;;;;17.31;92.71;102931.47;5052242;28;20132;-63
2023/05/26 09:25:36;;;;;;;17.30;4.45;;;;;;;16.99;91.34;102936.94;5051451;28;20103;-61
2023/05/26 09:28:05;;;;;;;18.73;4.60;;;;;;;16.98;91.13;102930.75;5051609;28;20143;-61
2023/05/26 09:30:38;;;;;;;20.77;4.55;;;;;;;16.76;92.40;102935.59;5052108;28;20037;-62
2023/05/26 09:33:09;;;;;;;16.88;4.72;;;;;;;17.20;89.39;102929.47;5052304;28;20133;-62
2023/05/26 09:35:39;;;;;;;20.02;5.22;;;;;;;17.51;88.35;102924.94;5052358;28;20133;-61
2023/05/26 09:38:11;;;;;;;19.48;4.65;;;;;;;17.37;84.00;102937.28;5034047;28;20084;-61
2023/05/26 09:40:41;;;;;;;19.65;4.25;;;;;;;17.73;82.76;102933.28;5052282;28;20051;-61
2023/05/26 09:43:10;;;;;;;20.45;4.75;;;;;;;17.93;82.16;102938.31;5051114;28;20052;-62
2023/05/26 09:45:39;;;;;;;18.48;4.15;;;;;;;18.20;80.52;102925.91;5034450;28;20465;-62
2023/05/26 09:48:08;;;;;;;15.32;4.50;;;;;;;18.62;81.40;102938.31;5052004;28;20424;-62
2023/05/26 09:50:38;;;;;;;17.17;4.35;;;;;;;18.41;72.86;102936.97;5051947;28;20163;-63
2023/05/26 09:53:10;;;;;;;14.57;3.85;;;;;;;18.52;70.62;102930.09;5051443;28;20131;-54
2023/05/26 09:55:42;;;;;;;12.32;3.50;;;;;;;18.83;70.02;102941.34;5050223;28;20107;-53
2023/05/26 09:58:12;;;;;;;15.45;4.43;;;;;;;18.69;67.66;102932.50;5048090;28;20039;-56
2023/05/26 10:00:42;;;;;;;17.17;4.55;;;;;;;18.85;68.74;102921.63;5049072;28;20049;-55
2023/05/26 10:03:11;;;;;;;13.45;3.42;;;;;;;18.97;67.21;102933.31;5049753;28;20037;-55
2023/05/26 10:05:44;;;;;;;17.58;4.55;;;;;;;19.13;68.22;102926.91;5052651;28;20045;-57
2023/05/26 10:08:17;;;;;;;16.85;4.43;;;;;;;19.37;67.57;102938.56;5052892;28;20403;-55
2023/05/26 10:10:46;;;;;;;14.60;3.97;;;;;;;19.54;68.38;102934.72;5033613;28;20049;-57
2023/05/26 10:13:15;;;;;;;13.88;4.00;;;;;;;19.50;62.77;102935.03;5052332;28;20822;-57
2023/05/26 10:15:45;;;;;;;13.65;3.85;;;;;;;19.35;60.52;102934.31;5052818;28;20081;-57
2023/05/26 10:18:13;;;;;;;18.65;4.53;;;;;;;19.58;60.37;102922.84;5052213;28;20068;-57
2023/05/26 10:20:47;;;;;;;18.88;4.43;;;;;;;19.87;59.79;102922.63;5052469;28;20076;-57
2023/05/26 10:23:21;;;;;;;11.60;3.85;;;;;;;20.20;61.21;102913.09;5052129;28;20055;-57
2023/05/26 10:25:57;;;;;;;13.57;3.38;;;;;;;20.18;59.20;102914.16;5051208;28;20574;-56
2023/05/26 10:28:37;;;;;;;15.60;3.85;;;;;;;20.27;56.65;102917.03;5052492;28;20295;-57
2023/05/26 10:31:06;;;;;;;15.10;4.43;;;;;;;20.47;55.61;102914.69;5052508;28;20488;-57
2023/05/26 10:33:41;;;;;;;13.48;3.70;;;;;;;20.50;57.65;102917.13;5052670;28;20033;-56
2023/05/26 10:36:13;;;;;;;15.82;3.88;;;;;;;20.79;57.17;102908.75;5051324;28;20053;-56
2023/05/26 10:38:46;;;;;;;14.18;4.28;;;;;;;20.53;56.55;102897.34;5051709;28;20448;-56
2023/05/26 10:41:31;;;;;;;18.98;4.00;;;;;;;20.63;57.40;102898.34;5049689;28;20049;-56
2023/05/26 10:43:59;;;;;;;13.02;3.60;;;;;;;20.66;54.46;102894.59;5052451;28;20068;-56
2023/05/26 10:46:38;;;;;;;14.75;3.70;;;;;;;20.82;54.66;102886.28;5051573;28;20045;-56
2023/05/26 10:49:21;;;;;;;13.00;3.85;;;;;;;20.94;54.70;102888.88;5034476;28;20053;-55
2023/05/26 10:51:50;;;;;;;15.63;4.38;;;;;;;21.07;54.54;102883.41;5051874;28;20045;-56
2023/05/26 10:54:24;;;;;;;15.48;4.22;;;;;;;21.24;54.17;102889.25;5051091;28;20037;-57
2023/05/26 10:56:54;;;;;;;15.13;3.72;;;;;;;21.23;54.68;102890.25;5050593;28;20048;-56
2023/05/26 10:59:29;;;;;;;15.55;4.10;;;;;;;21.30;52.58;102887.91;5052044;28;20052;-57
2023/05/26 11:02:02;;;;;;;14.70;3.65;;;;;;;21.11;52.85;102890.22;5052460;28;20041;-57
2023/05/26 11:04:41;;;;;;;15.68;4.63;;;;;;;20.88;52.86;102883.13;5051365;28;20087;-56
2023/05/26 11:07:16;;;;;;;17.00;4.25;;;;;;;21.20;51.76;102890.47;5033459;28;20136;-57
2023/05/26 11:09:58;;;;;;;14.88;3.70;;;;;;;21.29;50.17;102884.38;5051860;28;20047;-57
2023/05/26 11:12:33;;;;;;;14.00;4.10;;;;;;;21.48;50.46;102881.09;5049645;28;20053;-57
2023/05/26 11:15:26;;;;;;;12.90;4.03;;;;;;;21.36;50.45;102872.22;5050752;28;20102;-57
2023/05/26 11:17:56;;;;;;;13.77;3.33;;;;;;;21.39;52.05;102871.13;5051736;28;20084;-57
2023/05/26 11:20:27;;;;;;;;;;;;;;;21.73;51.13;102877.34;5051686;28;20094;-57
2023/05/26 11:22:57;;;;;;;13.48;3.38;;;;;;;21.85;49.31;102880.00;5050985;28;19924;-56
2023/05/26 11:25:26;;;;;;;14.70;3.53;;;;;;;22.06;49.14;102869.31;5051023;28;20049;-56
2023/05/26 11:27:55;;;;;;;14.98;3.67;;;;;;;22.32;49.42;102875.22;5050049;28;20060;-56